Latest METARs, TAFs and NOTAMs for ETSI


---------------------------------------------------------------------------
	(OBSERVATIONS)
ETSI 300220Z AUTO 07005KT 6000 // ////// 03/01 Q1016 ///=
ETSI 300120Z AUTO 07006KT 5000 // ////// 02/01 Q1016 ///=
ETSI 300020Z AUTO 07002KT 0600 // ////// 02/01 Q1016 ///=
---------------------------------------------------------------------------
	(FC)
TAF ETSI 280703Z 2808/2817 01006KT 8000 NSW SCT010 BKN015 OVC030
     TEMPO 2808/2817 01008KT 4000 RADZ FEW007 BKN012 OVC020=
---------------------------------------------------------------------------
	(TERMINAL AREA FORECAST)
COR ETSI 281022Z 2811/2820 01006KT 8000 NSW  SCT015 BKN030
    TEMPO  2811/2813 01008KT 4000 RADZ FEW007 BKN012 OVC020
    TEMPO  2813/2820 03010KT 5000 SHRA SCT010 BKN015 BKN080
    CANCEL 1220=
---------------------------------------------------------------------------
	(NOTAMS)


ETSI P1439/17 PAR 25R/07L OUT OF SERVICE. 24 FEB 06:47 2017 UNTIL
    19 MAY 13:00 2017. CREATED: 24 FEB 06:55 2017

ETSI P1440/17 NO SRA POSSIBLE. 24 FEB 06:51 2017 UNTIL 19 MAY
    13:00 2017. CREATED: 24 FEB 06:56 2017

ETSI P1441/17 LIMITED RADAR COVERAGE BELOW 5000FT MSL. DETAILED
    INFORMATION BY INGO RADAR. 24 FEB 06:54 2017 UNTIL 19 MAY
    13:00 2017. CREATED: 24 FEB 06:57 2017

ETSI P1543/17 PAR 25L/07R OUT 0F SERVICE. 01 MAR 14:42 2017 UNTIL
    19 MAY 12:00 2017. CREATED: 01 MAR 14:50 2017

ETSI P1792/17 NO APCH END ARRESTMENT FOR RWY 07L. 09 MAR 14:09
    2017 UNTIL 09 JUN 12:00 2017. CREATED: 09 MAR 14:12 2017

ETSI P2041/17 PAPI 25R U/S. 17 MAR 10:24 2017 UNTIL 19 MAY 13:00
    2017. CREATED: 17 MAR 10:30 2017

ETSI P2192/17 AD MIL OPENING HOURS CHANGED TO: MON-THU 0700-1400
    FR 0700-1100. 27 MAR 08:00 2017 UNTIL 23 JUN 11:00 2017.
    CREATED: 24 MAR 05:13 2017

ETSI P2964/17 RWY25L CABLE NO.3 OUT OF SERVICE. 27 APR 08:13
    2017 UNTIL 20 JUN 12:00 2017. CREATED: 27 APR 08:14 2017

ETSI P2965/17 RWY25R CABLE NO.2 OUT OF SERVICE. 27 APR 08:14
    2017 UNTIL 21 JUL 12:00 2017. CREATED: 27 APR 08:15 2017

---------------------------------------------------------------------------